Time;durP1;ratioP1;P1;durP2;ratioP2;P2;SDS_P1;SDS_P2;PMS_P1;PMS_P2;Temp;Humidity;BMP_temperature;BMP_pressure;BME280_temperature;BME280_humidity;BME280_pressure;Samples;Min_cycle;Max_cycle;Signal;HPM_P1;HPM_P2
2023/04/14 00:01:41;;;;;;;;;14.00;12.00;21.90;37.00;;;;;;111492;1244;44430;-69
2023/04/14 00:04:08;;;;;;;;;15.50;14.00;21.90;37.10;;;;;;111365;1244;54415;-70
2023/04/14 00:06:35;;;;;;;;;17.50;13.00;21.80;37.00;;;;;;111671;1240;53989;-70
2023/04/14 00:09:02;;;;;;;;;15.50;14.00;21.80;37.00;;;;;;111339;1244;49573;-69
2023/04/14 00:11:29;;;;;;;;;14.00;13.00;21.90;37.20;;;;;;111398;1240;49798;-71
2023/04/14 00:13:56;;;;;;;;;14.75;13.50;21.80;37.00;;;;;;111397;1241;44358;-71
2023/04/14 00:16:23;;;;;;;;;16.50;13.75;21.90;37.00;;;;;;111686;1241;54306;-70
2023/04/14 00:18:50;;;;;;;;;15.75;14.50;21.80;36.90;;;;;;111443;1244;53449;-69
2023/04/14 00:21:16;;;;;;;;;16.00;14.67;21.80;36.90;;;;;;111404;1240;49980;-71
2023/04/14 00:23:43;;;;;;;;;14.00;13.00;21.80;36.90;;;;;;111343;1241;49224;-71
2023/04/14 00:26:10;;;;;;;;;18.50;15.25;21.80;36.90;;;;;;111664;1242;46237;-71
2023/04/14 00:28:37;;;;;;;;;14.67;13.00;21.80;36.90;;;;;;111502;1244;54737;-71
2023/04/14 00:31:05;;;;;;;;;15.50;14.00;21.80;36.90;;;;;;111352;1241;53703;-70
2023/04/14 00:33:32;;;;;;;;;14.00;12.67;21.80;37.00;;;;;;111459;1244;49068;-71
2023/04/14 00:35:59;;;;;;;;;14.75;13.75;21.80;37.10;;;;;;111643;1241;49144;-70
2023/04/14 00:38:26;;;;;;;;;15.00;14.00;21.80;36.90;;;;;;111380;1244;46024;-72
2023/04/14 00:40:53;;;;;;;;;16.00;13.00;21.80;36.90;;;;;;111365;1244;55021;-69
2023/04/14 00:43:20;;;;;;;;;15.00;12.33;21.80;37.00;;;;;;111428;1244;53650;-72
2023/04/14 00:45:48;;;;;;;;;15.33;14.00;21.70;37.10;;;;;;111632;1244;49873;-71
2023/04/14 00:48:16;;;;;;;;;15.00;13.67;21.70;36.90;;;;;;111067;1247;50272;-73
2023/04/14 00:50:43;;;;;;;;;15.75;12.00;21.70;36.90;;;;;;111330;1244;45280;-73
2023/04/14 00:53:11;;;;;;;;;15.00;13.25;21.70;36.90;;;;;;111113;1244;54100;-72
2023/04/14 00:55:40;;;;;;;;;16.00;14.00;21.70;37.10;;;;;;111404;1243;54755;-72
2023/04/14 00:58:07;;;;;;;;;15.50;14.00;21.70;36.90;;;;;;111393;1244;50828;-71
2023/04/14 01:00:35;;;;;;;;;15.75;13.00;21.70;36.90;;;;;;111424;1240;49635;-72
2023/04/14 01:03:05;;;;;;;;;15.25;14.00;21.70;36.90;;;;;;111161;1243;45144;-71
2023/04/14 01:05:33;;;;;;;;;13.00;11.25;21.60;37.00;;;;;;111743;1241;55590;-70
2023/04/14 01:08:01;;;;;;;;;16.67;14.00;21.70;37.00;;;;;;111466;1240;53944;-70
2023/04/14 01:10:35;;;;;;;;;14.00;12.75;21.60;36.80;;;;;;111425;1244;49394;-70
2023/04/14 01:13:18;;;;;;;;;13.00;12.00;21.60;36.90;;;;;;111452;1240;49679;-71
2023/04/14 01:15:56;;;;;;;;;16.00;13.50;21.70;36.90;;;;;;111637;1241;44965;-71
2023/04/14 01:19:00;;;;;;;;;16.50;13.75;21.60;36.90;;;;;;111431;1244;54422;-71
2023/04/14 01:21:38;;;;;;;;;14.33;12.00;21.70;36.90;;;;;;111404;1244;53839;-71
2023/04/14 01:24:20;;;;;;;;;14.33;13.00;21.60;36.30;;;;;;111464;1241;50533;-71
2023/04/14 01:27:02;;;;;;;;;13.00;11.00;21.60;36.80;;;;;;111618;1240;50577;-71
2023/04/14 01:29:41;;;;;;;;;16.25;15.00;21.60;36.80;;;;;;111106;1244;44910;-69
2023/04/14 01:32:10;;;;;;;;;16.00;15.00;21.60;36.70;;;;;;111384;1242;55037;-71
2023/04/14 01:34:45;;;;;;;;;13.50;12.00;21.60;36.80;;;;;;111695;1244;53769;-68
2023/04/14 01:37:29;;;;;;;;;12.67;11.00;21.60;36.80;;;;;;111094;1243;49819;-70
2023/04/14 01:40:01;;;;;;;;;16.00;12.75;21.60;36.90;;;;;;111378;1241;49076;-71
2023/04/14 01:42:34;;;;;;;;;17.33;14.67;21.60;36.80;;;;;;111415;1244;44552;-70
2023/04/14 01:45:15;;;;;;;;;15.25;13.75;21.60;36.80;;;;;;111657;1244;54248;-71
2023/04/14 01:47:43;;;;;;;;;15.00;13.75;21.50;36.80;;;;;;111383;1240;54091;-71
2023/04/14 01:50:11;;;;;;;;;15.25;14.00;21.50;37.00;;;;;;111379;1244;49135;-70
2023/04/14 01:52:38;;;;;;;;;19.00;15.00;21.60;37.00;;;;;;111079;1242;50016;-69
2023/04/14 01:55:08;;;;;;;;;15.25;14.25;21.60;36.80;;;;;;111592;1244;45982;-69
2023/04/14 01:57:36;;;;;;;;;14.00;13.00;21.50;36.80;;;;;;111282;1245;54392;-69
2023/04/14 02:00:04;;;;;;;;;15.75;12.00;21.50;36.40;;;;;;111244;1241;53522;-70
2023/04/14 02:02:32;;;;;;;;;15.00;13.50;21.50;36.80;;;;;;111393;1240;49119;-69
2023/04/14 02:05:03;;;;;;;;;14.25;12.25;21.50;36.80;;;;;;111686;1244;49332;-70
2023/04/14 02:07:31;;;;;;;;;13.00;12.00;21.50;36.90;;;;;;111127;1244;44706;-71
2023/04/14 02:09:59;;;;;;;;;14.00;13.00;21.50;36.90;;;;;;111431;1244;55217;-70
2023/04/14 02:12:28;;;;;;;;;14.00;13.00;21.50;36.90;;;;;;111382;1240;54155;-69
2023/04/14 02:14:57;;;;;;;;;15.50;14.00;21.40;37.00;;;;;;111698;1244;49964;-69
2023/04/14 02:17:24;;;;;;;;;16.75;14.00;21.40;36.80;;;;;;111164;1246;49433;-69
2023/04/14 02:19:52;;;;;;;;;13.75;12.25;21.40;37.00;;;;;;111102;1243;45136;-71
2023/04/14 02:22:19;;;;;;;;;15.50;11.75;21.40;36.80;;;;;;111353;1241;55227;-70
2023/04/14 02:24:47;;;;;;;;;16.67;14.00;21.40;36.80;;;;;;111678;1244;54864;-70
2023/04/14 02:27:20;;;;;;;;;16.75;14.25;21.40;36.90;;;;;;111298;1240;49053;-72
2023/04/14 02:29:51;;;;;;;;;17.00;14.00;21.30;36.80;;;;;;111314;1244;50627;-69
2023/04/14 02:32:28;;;;;;;;;14.00;13.00;21.30;36.80;;;;;;111447;1244;44933;-69
2023/04/14 02:35:15;;;;;;;;;13.00;12.00;21.30;36.80;;;;;;111634;1244;56054;-70
2023/04/14 02:37:49;;;;;;;;;14.50;12.75;21.40;36.90;;;;;;111296;1244;54205;-70
2023/04/14 02:40:25;;;;;;;;;16.33;14.67;21.30;36.80;;;;;;111356;1244;49431;-70
2023/04/14 02:42:59;;;;;;;;;15.67;14.00;21.30;36.80;;;;;;111220;1247;49054;-70
2023/04/14 02:45:28;;;;;;;;;15.25;13.50;21.30;36.80;;;;;;111556;1244;45490;-70
2023/04/14 02:47:58;;;;;;;;;15.00;14.00;21.30;36.80;;;;;;111349;1244;54335;-73
2023/04/14 02:50:27;;;;;;;;;15.25;13.00;21.40;36.90;;;;;;111406;1240;53837;-72
2023/04/14 02:52:55;;;;;;;;;15.75;14.25;21.30;36.80;;;;;;111074;1244;49487;-72
2023/04/14 02:55:22;;;;;;;;;16.25;14.00;21.30;36.80;;;;;;111677;1242;50922;-69
2023/04/14 02:57:51;;;;;;;;;16.00;13.50;21.30;36.80;;;;;;111388;1240;45515;-69
2023/04/14 03:00:19;;;;;;;;;18.75;16.75;21.30;36.80;;;;;;111445;1240;54830;-69
2023/04/14 03:02:47;;;;;;;;;15.00;13.75;21.20;36.70;;;;;;111361;1241;54755;-68
2023/04/14 03:05:14;;;;;;;;;15.00;14.00;21.20;36.80;;;;;;110930;1245;49798;-69
2023/04/14 03:07:42;;;;;;;;;16.00;13.75;21.20;36.90;;;;;;111337;1241;49262;-69
2023/04/14 03:10:11;;;;;;;;;18.50;14.00;21.20;36.80;;;;;;111113;1244;44956;-69
2023/04/14 03:12:40;;;;;;;;;15.50;13.75;21.20;37.10;;;;;;111376;1244;55068;-69
2023/04/14 03:15:08;;;;;;;;;14.00;13.00;21.20;36.90;;;;;;111418;1246;54433;-70
2023/04/14 03:17:36;;;;;;;;;15.00;12.00;21.20;36.90;;;;;;111275;1240;49097;-70
2023/04/14 03:20:04;;;;;;;;;16.00;14.75;21.20;36.90;;;;;;111356;1244;49712;-71
2023/04/14 03:22:35;;;;;;;;;14.75;13.25;21.20;37.00;;;;;;111292;1244;44466;-70
2023/04/14 03:25:02;;;;;;;;;15.25;14.00;21.10;37.00;;;;;;111350;1244;54260;-70
2023/04/14 03:27:30;;;;;;;;;17.75;15.75;21.10;36.90;;;;;;110992;1244;53485;-72
2023/04/14 03:30:02;;;;;;;;;15.75;13.75;21.10;37.10;;;;;;111005;1244;49009;-70
2023/04/14 03:32:34;;;;;;;;;15.00;14.00;21.10;36.90;;;;;;111274;1244;49892;-71
2023/04/14 03:35:02;;;;;;;;;15.75;13.75;21.10;37.20;;;;;;111402;1242;45569;-70
2023/04/14 03:37:30;;;;;;;;;19.25;17.00;21.10;36.60;;;;;;111365;1244;55113;-70
2023/04/14 03:39:59;;;;;;;;;15.00;13.00;21.10;37.00;;;;;;111408;1240;54612;-70
2023/04/14 03:42:28;;;;;;;;;15.00;12.00;21.10;37.00;;;;;;111310;1241;49461;-69
2023/04/14 03:44:57;;;;;;;;;14.33;13.33;21.00;37.00;;;;;;111479;1244;49099;-69
2023/04/14 03:47:29;;;;;;;;;16.25;13.25;21.00;37.00;;;;;;111046;1244;45005;-70
2023/04/14 03:50:00;;;;;;;;;16.00;13.00;21.00;37.00;;;;;;111040;1242;54804;-70
2023/04/14 03:52:34;;;;;;;;;17.00;15.00;21.00;37.00;;;;;;111052;1246;53805;-70
2023/04/14 03:55:05;;;;;;;;;15.00;14.00;21.00;36.80;;;;;;111527;1244;49337;-69
2023/04/14 03:57:33;;;;;;;;;14.25;13.00;21.00;37.00;;;;;;111033;1247;49988;-70
2023/04/14 04:00:03;;;;;;;;;15.50;14.00;21.00;37.00;;;;;;111038;1245;44637;-71
2023/04/14 04:02:31;;;;;;;;;15.00;14.00;21.00;37.20;;;;;;111351;1241;54026;-70
2023/04/14 04:04:58;;;;;;;;;15.00;14.00;21.00;37.30;;;;;;111253;1244;54025;-69
2023/04/14 04:07:26;;;;;;;;;16.25;15.00;21.00;37.30;;;;;;111406;1244;49142;-70
2023/04/14 04:09:55;;;;;;;;;15.75;14.00;21.00;37.10;;;;;;111104;1242;49070;-70
2023/04/14 04:12:23;;;;;;;;;17.00;14.00;21.00;37.30;;;;;;111008;1244;45149;-69
2023/04/14 04:14:50;;;;;;;;;13.75;12.00;20.90;37.00;;;;;;111537;1244;54966;-69
2023/04/14 04:17:18;;;;;;;;;16.00;14.00;21.00;37.20;;;;;;111315;1241;54986;-69
2023/04/14 04:19:46;;;;;;;;;16.00;14.00;21.00;37.10;;;;;;111067;1244;50384;-70
2023/04/14 04:22:16;;;;;;;;;19.33;15.67;21.00;37.10;;;;;;111062;1241;49205;-70
2023/04/14 04:24:44;;;;;;;;;14.00;13.00;21.00;37.10;;;;;;111472;1241;45146;-69
2023/04/14 04:27:11;;;;;;;;;17.50;15.00;20.90;37.10;;;;;;111107;1244;53924;-69
2023/04/14 04:29:38;;;;;;;;;13.67;12.00;21.00;37.40;;;;;;111304;1244;54376;-70
2023/04/14 04:32:06;;;;;;;;;14.75;13.75;20.90;37.10;;;;;;111043;1243;49009;-71
2023/04/14 04:34:33;;;;;;;;;16.00;13.00;20.90;37.10;;;;;;111535;1244;49688;-72
2023/04/14 04:37:01;;;;;;;;;16.67;15.33;20.90;37.10;;;;;;111173;1241;44757;-72
2023/04/14 04:39:29;;;;;;;;;14.00;12.00;20.90;37.20;;;;;;111050;1243;54164;-71
2023/04/14 04:42:03;;;;;;;;;16.75;15.00;20.90;37.20;;;;;;110995;1244;54092;-67
2023/04/14 04:44:31;;;;;;;;;17.00;14.00;20.90;37.20;;;;;;111428;1244;50156;-72
2023/04/14 04:46:59;;;;;;;;;15.00;13.00;20.90;37.30;;;;;;111324;1244;49582;-72
2023/04/14 04:49:26;;;;;;;;;15.00;14.00;20.90;37.40;;;;;;110153;1244;1468038;-67
2023/04/14 04:51:55;;;;;;;;;14.00;13.00;20.90;37.20;;;;;;111267;1241;55728;-67
2023/04/14 04:54:22;;;;;;;;;18.75;16.00;20.90;37.20;;;;;;111254;1244;53896;-66
2023/04/14 04:56:49;;;;;;;;;20.00;16.75;20.90;37.20;;;;;;111235;1244;50087;-65
2023/04/14 04:59:16;;;;;;;;;22.33;21.00;20.90;40.20;;;;;;111117;1245;49315;-67
2023/04/14 05:01:43;;;;;;;;;25.75;21.00;20.90;43.20;;;;;;111178;1243;45950;-66
2023/04/14 05:04:10;;;;;;;;;22.00;19.00;20.90;44.70;;;;;;111323;1244;55335;-68
2023/04/14 05:06:37;;;;;;;;;21.00;19.50;21.00;45.00;;;;;;111422;1244;54647;-68
2023/04/14 05:09:05;;;;;;;;;22.25;20.75;21.10;45.00;;;;;;111243;1244;49133;-71
2023/04/14 05:11:32;;;;;;;;;19.25;17.75;21.10;44.80;;;;;;111162;1243;50215;-67
2023/04/14 05:14:00;;;;;;;;;16.75;15.75;21.20;44.80;;;;;;111260;1240;44620;-67
2023/04/14 05:16:28;;;;;;;;;19.25;17.00;21.20;44.70;;;;;;111277;1243;54678;-67
2023/04/14 05:18:55;;;;;;;;;20.00;18.75;21.30;44.70;;;;;;111354;1244;53766;-67
2023/04/14 05:21:22;;;;;;;;;19.50;18.50;21.40;44.70;;;;;;111458;1244;50281;-65
2023/04/14 05:23:49;;;;;;;;;21.75;20.75;21.40;44.60;;;;;;111167;1244;49861;-68
2023/04/14 05:26:17;;;;;;;;;21.50;17.00;21.50;44.60;;;;;;111285;1241;44663;-66
2023/04/14 05:28:44;;;;;;;;;20.75;19.25;21.50;44.60;;;;;;111171;1245;53986;-65
2023/04/14 05:31:11;;;;;;;;;18.00;16.25;21.50;44.20;;;;;;111184;1239;53798;-68
2023/04/14 05:33:38;;;;;;;;;18.75;17.25;21.60;44.80;;;;;;111182;1244;50068;-69
2023/04/14 05:36:06;;;;;;;;;25.25;18.00;21.60;44.00;;;;;;111432;1245;49285;-71
2023/04/14 05:38:38;;;;;;;;;23.50;21.00;21.60;44.30;;;;;;111154;1247;46282;-70
2023/04/14 05:41:06;;;;;;;;;22.67;19.67;21.70;44.10;;;;;;111139;1245;55381;-75
2023/04/14 05:43:33;;;;;;;;;22.33;18.67;21.70;44.00;;;;;;111139;1246;54022;-68
2023/04/14 05:46:00;;;;;;;;;23.50;18.75;21.70;43.80;;;;;;111073;1240;49622;-69
2023/04/14 05:48:29;;;;;;;;;24.75;20.25;21.80;43.60;;;;;;111078;1243;49686;-69
2023/04/14 05:50:56;;;;;;;;;23.67;18.67;21.80;43.40;;;;;;111160;1244;45012;-69
2023/04/14 05:53:24;;;;;;;;;22.33;19.67;21.80;42.90;;;;;;111105;1245;55615;-66
2023/04/14 05:55:51;;;;;;;;;23.25;17.75;21.70;42.60;;;;;;111083;1243;54168;-65
2023/04/14 05:58:18;;;;;;;;;23.33;21.67;21.70;42.40;;;;;;111199;1246;49307;-65
2023/04/14 06:00:46;;;;;;;;;19.00;16.00;21.70;42.10;;;;;;111069;1247;50186;-65
2023/04/14 06:03:14;;;;;;;;;26.00;21.00;21.70;41.90;;;;;;111109;1241;44850;-64
2023/04/14 06:05:42;;;;;;;;;22.33;20.67;21.70;41.80;;;;;;111094;1246;55164;-65
2023/04/14 06:08:09;;;;;;;;;21.50;17.50;21.60;41.60;;;;;;111104;1247;54003;-65
2023/04/14 06:10:36;;;;;;;;;18.67;17.00;21.60;41.50;;;;;;111091;1245;49194;-65
2023/04/14 06:13:03;;;;;;;;;21.75;17.25;21.60;41.40;;;;;;111120;1241;49924;-64
2023/04/14 06:15:30;;;;;;;;;23.67;20.00;21.50;41.20;;;;;;111029;1247;45694;-65
2023/04/14 06:17:57;;;;;;;;;23.00;19.00;21.50;41.10;;;;;;111051;1244;54596;-66
2023/04/14 06:20:24;;;;;;;;;22.33;20.00;21.50;41.60;;;;;;111019;1244;53458;-63
2023/04/14 06:22:51;;;;;;;;;18.67;16.33;21.50;40.90;;;;;;111077;1246;50702;-65
2023/04/14 06:25:18;;;;;;;;;19.75;18.75;21.40;40.80;;;;;;111081;1243;49885;-65
2023/04/14 06:27:45;;;;;;;;;20.67;18.67;21.40;40.80;;;;;;111061;1241;45062;-70
2023/04/14 06:30:15;;;;;;;;;21.00;18.00;21.40;40.80;;;;;;111160;1243;54062;-71
2023/04/14 06:32:42;;;;;;;;;61.75;40.00;21.40;40.70;;;;;;111017;1245;54072;-61
2023/04/14 06:35:09;;;;;;;;;58.25;35.75;21.40;47.70;;;;;;111140;1243;50396;-60
2023/04/14 06:37:36;;;;;;;;;54.75;38.75;21.50;47.70;;;;;;111159;1244;49438;-62
2023/04/14 06:40:04;;;;;;;;;54.00;36.67;21.50;47.50;;;;;;111179;1242;44420;-61
2023/04/14 06:42:31;;;;;;;;;52.00;35.33;21.60;46.60;;;;;;111188;1240;55154;-62
2023/04/14 06:44:58;;;;;;;;;55.25;35.50;21.60;46.20;;;;;;111183;1245;53442;-61
2023/04/14 06:47:25;;;;;;;;;50.33;37.67;21.60;45.50;;;;;;111183;1244;50518;-60
2023/04/14 06:49:52;;;;;;;;;44.25;32.75;21.60;44.70;;;;;;111190;1244;48937;-60
2023/04/14 06:52:18;;;;;;;;;42.67;33.00;21.60;44.50;;;;;;111234;1241;44671;-60
2023/04/14 06:54:46;;;;;;;;;46.00;33.75;21.60;44.20;;;;;;111192;1242;55290;-60
2023/04/14 06:57:12;;;;;;;;;53.75;36.75;21.60;43.90;;;;;;111358;1241;54196;-60
2023/04/14 06:59:40;;;;;;;;;51.00;35.25;21.60;43.80;;;;;;111210;1242;50574;-60
2023/04/14 07:02:07;;;;;;;;;46.25;33.50;21.60;43.80;;;;;;111374;1244;49659;-60
2023/04/14 07:04:36;;;;;;;;;43.25;29.00;21.60;43.60;;;;;;111304;1241;45269;-62
2023/04/14 07:07:03;;;;;;;;;45.75;32.25;21.50;43.50;;;;;;111185;1244;55579;-63
2023/04/14 07:09:30;;;;;;;;;48.00;36.00;21.50;43.30;;;;;;111175;1244;53542;-62
2023/04/14 07:11:58;;;;;;;;;46.75;31.50;21.50;43.00;;;;;;111184;1244;48938;-61
2023/04/14 07:14:25;;;;;;;;;40.75;32.00;21.50;42.90;;;;;;111241;1244;49806;-61
2023/04/14 07:16:52;;;;;;;;;42.67;32.33;21.50;42.80;;;;;;111060;1245;44590;-63
2023/04/14 07:19:19;;;;;;;;;44.50;33.75;21.50;42.70;;;;;;111028;1241;54252;-60
2023/04/14 07:21:47;;;;;;;;;41.25;29.75;21.50;42.50;;;;;;111329;1240;53991;-61
2023/04/14 07:24:14;;;;;;;;;44.25;31.75;21.50;42.40;;;;;;111209;1241;48792;-60
2023/04/14 07:26:42;;;;;;;;;40.33;31.67;21.50;42.30;;;;;;111218;1241;50552;-61
2023/04/14 07:29:09;;;;;;;;;43.67;29.67;21.50;42.10;;;;;;111243;1244;44983;-61
2023/04/14 07:31:36;;;;;;;;;48.00;34.25;21.50;42.20;;;;;;111229;1244;54812;-61
2023/04/14 07:34:04;;;;;;;;;39.00;30.75;21.50;42.10;;;;;;111231;1240;53785;-60
2023/04/14 07:36:31;;;;;;;;;39.00;29.00;21.50;42.10;;;;;;111240;1241;49177;-61
2023/04/14 07:38:58;;;;;;;;;41.25;32.75;21.50;41.80;;;;;;111231;1240;49410;-61
2023/04/14 07:41:26;;;;;;;;;35.00;28.50;21.50;41.70;;;;;;111167;1243;45262;-62
2023/04/14 07:43:54;;;;;;;;;42.00;31.00;21.50;41.60;;;;;;111193;1242;55795;-63
2023/04/14 07:46:21;;;;;;;;;34.00;28.33;21.60;41.60;;;;;;111237;1240;53421;-60
2023/04/14 07:48:48;;;;;;;;;41.25;29.00;21.60;41.60;;;;;;111210;1242;49578;-60
2023/04/14 07:51:15;;;;;;;;;43.25;32.50;21.60;41.70;;;;;;111306;1241;49779;-61
2023/04/14 07:53:43;;;;;;;;;42.75;32.25;21.60;41.40;;;;;;111221;1240;44929;-60
2023/04/14 07:56:11;;;;;;;;;38.33;29.67;21.60;41.30;;;;;;111272;1243;54872;-60
2023/04/14 07:58:38;;;;;;;;;36.75;29.75;21.60;41.30;;;;;;111272;1241;53809;-61
2023/04/14 08:01:06;;;;;;;;;49.67;34.00;21.60;41.30;;;;;;111246;1241;49789;-61
2023/04/14 08:03:36;;;;;;;;;45.00;29.75;21.60;41.10;;;;;;111216;1242;50178;-61
2023/04/14 08:06:06;;;;;;;;;42.00;29.75;21.70;41.20;;;;;;111314;1244;44702;-60
2023/04/14 08:08:34;;;;;;;;;31.00;27.33;21.70;41.10;;;;;;111292;1241;54985;-61
2023/04/14 08:11:01;;;;;;;;;33.33;25.33;21.70;41.00;;;;;;110999;1246;53774;-61
2023/04/14 08:13:28;;;;;;;;;35.50;26.00;21.70;40.90;;;;;;111225;1244;49763;-61
2023/04/14 08:15:55;;;;;;;;;29.67;27.67;21.70;41.10;;;;;;111180;1243;49779;-61
2023/04/14 08:18:22;;;;;;;;;26.50;24.75;21.70;40.90;;;;;;111250;1244;44839;-60
2023/04/14 08:20:49;;;;;;;;;39.33;29.00;21.80;41.30;;;;;;111255;1240;54925;-61
2023/04/14 08:23:16;;;;;;;;;32.25;25.75;21.80;40.80;;;;;;111230;1244;53890;-60
2023/04/14 08:25:43;;;;;;;;;40.50;30.00;21.80;41.00;;;;;;111291;1244;49723;-61
2023/04/14 08:28:11;;;;;;;;;33.50;25.50;21.80;40.70;;;;;;111199;1244;48926;-60
2023/04/14 08:30:38;;;;;;;;;35.75;28.75;21.80;40.80;;;;;;111197;1244;44927;-60
2023/04/14 08:33:05;;;;;;;;;32.00;25.50;21.80;40.60;;;;;;111180;1240;54915;-60
2023/04/14 08:35:34;;;;;;;;;29.75;23.00;21.80;40.50;;;;;;111258;1244;54630;-61
2023/04/14 08:38:01;;;;;;;;;30.25;24.50;21.90;40.60;;;;;;111200;1240;49119;-61
2023/04/14 08:40:35;;;;;;;;;32.50;26.00;21.90;40.50;;;;;;111194;1240;49122;-61
2023/04/14 08:43:02;;;;;;;;;36.00;27.00;22.00;40.50;;;;;;111206;1244;44720;-61
2023/04/14 08:45:33;;;;;;;;;38.25;29.50;22.00;40.50;;;;;;111268;1241;54823;-60
2023/04/14 08:48:02;;;;;;;;;31.25;23.25;22.10;40.50;;;;;;111222;1241;53600;-61
2023/04/14 08:50:36;;;;;;;;;28.25;25.75;22.10;40.30;;;;;;111191;1243;49316;-60
2023/04/14 08:53:07;;;;;;;;;30.00;24.00;22.20;40.30;;;;;;111179;1240;50631;-61
2023/04/14 08:55:39;;;;;;;;;30.00;22.00;22.30;40.30;;;;;;111019;1244;45239;-61
2023/04/14 08:58:07;;;;;;;;;35.75;26.50;22.40;40.20;;;;;;111254;1243;54189;-60
2023/04/14 09:00:34;;;;;;;;;28.25;23.50;22.40;40.30;;;;;;111249;1244;53646;-60
2023/04/14 09:03:02;;;;;;;;;25.50;21.50;22.50;40.30;;;;;;111225;1241;50130;-60
2023/04/14 09:05:29;;;;;;;;;27.50;22.75;22.50;40.40;;;;;;111008;1241;49490;-60
2023/04/14 09:07:57;;;;;;;;;29.50;22.00;22.50;40.00;;;;;;111005;1241;45816;-60
2023/04/14 09:10:24;;;;;;;;;28.00;25.00;22.60;40.00;;;;;;111346;1244;55104;-60
2023/04/14 09:12:53;;;;;;;;;28.00;20.50;22.60;39.90;;;;;;111025;1241;53634;-60
2023/04/14 09:15:20;;;;;;;;;30.75;24.75;22.70;40.00;;;;;;111223;1241;49181;-60
2023/04/14 09:17:47;;;;;;;;;29.25;23.00;22.70;39.90;;;;;;111259;1243;50536;-60
2023/04/14 09:20:14;;;;;;;;;25.00;22.00;22.70;39.90;;;;;;111287;1244;44527;-59
2023/04/14 09:22:41;;;;;;;;;29.00;20.33;22.80;39.90;;;;;;111191;1241;54879;-60
2023/04/14 09:25:09;;;;;;;;;28.00;23.00;22.80;39.80;;;;;;111257;1243;54074;-61
2023/04/14 09:27:37;;;;;;;;;29.00;22.00;22.90;39.90;;;;;;111246;1244;49182;-60
2023/04/14 09:30:05;;;;;;;;;27.00;21.50;22.90;39.40;;;;;;111190;1244;49746;-62
2023/04/14 09:32:32;;;;;;;;;22.25;21.25;23.00;39.80;;;;;;111285;1241;44594;-61
2023/04/14 09:34:59;;;;;;;;;24.00;21.00;23.00;39.70;;;;;;111238;1239;54572;-61
2023/04/14 09:37:26;;;;;;;;;24.75;21.00;23.10;39.70;;;;;;111260;1241;53242;-61
2023/04/14 09:39:56;;;;;;;;;24.00;22.50;23.10;40.10;;;;;;111204;1244;49905;-61
2023/04/14 09:42:38;;;;;;;;;29.25;19.75;23.20;39.70;;;;;;111213;1239;50848;-61
2023/04/14 09:45:07;;;;;;;;;27.25;21.50;23.20;39.60;;;;;;111274;1241;44574;-60
2023/04/14 09:47:34;;;;;;;;;30.00;23.25;23.30;39.60;;;;;;111209;1244;55510;-60
2023/04/14 09:50:03;;;;;;;;;21.67;19.67;23.30;39.60;;;;;;111231;1243;53913;-61
2023/04/14 09:52:40;;;;;;;;;22.75;19.25;23.40;39.50;;;;;;111234;1240;49656;-60
2023/04/14 09:55:13;;;;;;;;;26.75;22.75;23.40;39.40;;;;;;111268;1243;49758;-61
2023/04/14 09:57:41;;;;;;;;;27.00;23.50;23.40;39.40;;;;;;111223;1244;46080;-60
2023/04/14 10:00:14;;;;;;;;;27.00;21.25;23.50;39.40;;;;;;111252;1238;53979;-61
2023/04/14 10:02:57;;;;;;;;;28.75;23.00;23.60;39.60;;;;;;111193;1244;54231;-61
2023/04/14 10:05:27;;;;;;;;;26.00;19.75;23.60;39.80;;;;;;111354;1241;49924;-61
2023/04/14 10:07:54;;;;;;;;;29.25;25.50;23.60;39.60;;;;;;111251;1241;49659;-60
2023/04/14 10:10:22;;;;;;;;;21.50;18.75;23.60;39.60;;;;;;110996;1243;46046;-60
2023/04/14 10:12:52;;;;;;;;;26.75;20.50;23.60;39.30;;;;;;111236;1241;54469;-60
2023/04/14 10:15:19;;;;;;;;;24.50;19.75;23.60;39.20;;;;;;111254;1244;54093;-60
2023/04/14 10:17:46;;;;;;;;;25.50;22.00;23.70;39.30;;;;;;111285;1241;50233;-61
2023/04/14 10:20:14;;;;;;;;;28.50;19.00;23.70;39.30;;;;;;111212;1241;48960;-60
2023/04/14 10:22:42;;;;;;;;;29.00;20.75;23.70;39.20;;;;;;111025;1244;44718;-60
2023/04/14 10:25:10;;;;;;;;;24.25;18.00;23.70;38.80;;;;;;111194;1239;54019;-60
2023/04/14 10:27:37;;;;;;;;;19.75;17.00;23.70;39.40;;;;;;111241;1242;53489;-60
2023/04/14 10:30:07;;;;;;;;;26.00;19.75;23.70;39.20;;;;;;111206;1244;50091;-60
2023/04/14 10:32:35;;;;;;;;;21.00;18.67;23.70;39.20;;;;;;111021;1241;49849;-60
2023/04/14 10:35:05;;;;;;;;;23.75;21.50;23.60;39.30;;;;;;111374;1241;45227;-60
2023/04/14 10:37:32;;;;;;;;;19.67;17.00;23.60;39.20;;;;;;111258;1244;54004;-61
2023/04/14 10:40:03;;;;;;;;;23.50;19.50;23.60;39.10;;;;;;111235;1239;54104;-60
2023/04/14 10:42:53;;;;;;;;;30.00;20.00;23.60;39.20;;;;;;111257;1241;50534;-61
2023/04/14 10:45:20;;;;;;;;;21.50;18.75;23.60;39.20;;;;;;111220;1244;48992;-61
2023/04/14 10:47:48;;;;;;;;;21.33;16.33;23.60;39.20;;;;;;111420;1239;45989;-61
2023/04/14 10:50:16;;;;;;;;;16.50;15.25;23.60;39.10;;;;;;111254;1241;54429;-60
2023/04/14 10:52:57;;;;;;;;;18.00;16.50;23.60;39.10;;;;;;111227;1241;53864;-62
2023/04/14 10:55:26;;;;;;;;;21.33;16.33;23.60;39.30;;;;;;111300;1240;49178;-61
2023/04/14 10:58:07;;;;;;;;;24.00;21.67;23.60;39.20;;;;;;111209;1241;50623;-60
2023/04/14 11:00:38;;;;;;;;;21.75;18.75;23.60;39.20;;;;;;111213;1244;45111;-61
2023/04/14 11:03:09;;;;;;;;;24.00;19.00;23.50;39.00;;;;;;111310;1239;54924;-60
2023/04/14 11:05:44;;;;;;;;;18.25;17.00;23.50;39.10;;;;;;111331;1244;53167;-60
2023/04/14 11:08:13;;;;;;;;;22.25;19.00;23.50;39.20;;;;;;111216;1239;50081;-60
2023/04/14 11:10:47;;;;;;;;;25.50;16.00;23.50;39.30;;;;;;110969;1247;49125;-60
2023/04/14 11:13:15;;;;;;;;;20.75;15.50;23.50;39.30;;;;;;111242;1248;45095;-62
2023/04/14 11:15:43;;;;;;;;;24.25;20.00;23.50;39.20;;;;;;111032;1244;54600;-61
2023/04/14 11:18:15;;;;;;;;;22.25;17.00;23.40;39.30;;;;;;111276;1244;54229;-61
2023/04/14 11:20:43;;;;;;;;;24.00;19.00;23.40;39.60;;;;;;111214;1244;49486;-61
2023/04/14 11:23:15;;;;;;;;;20.25;16.00;23.40;39.10;;;;;;111313;1244;49774;-61
2023/04/14 11:25:42;;;;;;;;;21.00;15.67;23.40;39.10;;;;;;111305;1241;44933;-60
2023/04/14 11:28:09;;;;;;;;;19.00;14.50;23.40;39.20;;;;;;111031;1246;55830;-60
2023/04/14 11:30:39;;;;;;;;;18.50;16.50;23.40;39.10;;;;;;111169;1241;54048;-61
2023/04/14 11:33:06;;;;;;;;;20.00;17.00;23.30;39.00;;;;;;111203;1241;49264;-61
2023/04/14 11:35:33;;;;;;;;;24.50;16.00;23.30;39.00;;;;;;111208;1244;49917;-62
2023/04/14 11:38:00;;;;;;;;;23.25;20.75;23.30;39.10;;;;;;111234;1240;45141;-61
2023/04/14 11:40:27;;;;;;;;;21.75;17.25;23.30;39.10;;;;;;111179;1244;55250;-61
2023/04/14 11:42:56;;;;;;;;;19.00;17.00;23.30;39.00;;;;;;111293;1241;54072;-60
2023/04/14 11:45:30;;;;;;;;;19.00;17.25;23.30;39.10;;;;;;111395;1239;50140;-61
2023/04/14 11:48:00;;;;;;;;;24.75;22.50;23.30;39.10;;;;;;111031;1241;49666;-60
2023/04/14 11:50:37;;;;;;;;;19.00;17.00;23.30;39.10;;;;;;111274;1244;44766;-61
2023/04/14 11:53:08;;;;;;;;;18.33;15.00;23.30;39.10;;;;;;111202;1244;55328;-60
2023/04/14 11:55:35;;;;;;;;;19.00;17.33;23.20;39.10;;;;;;111200;1240;53780;-60
2023/04/14 11:58:03;;;;;;;;;23.00;18.00;23.20;39.30;;;;;;111210;1243;49612;-60
2023/04/14 12:00:30;;;;;;;;;16.50;14.00;23.30;39.70;;;;;;111164;1244;49020;-61
2023/04/14 12:03:02;;;;;;;;;25.33;19.00;23.20;39.00;;;;;;111298;1244;45709;-60
2023/04/14 12:05:30;;;;;;;;;19.25;15.25;23.20;39.10;;;;;;111215;1241;55819;-62
2023/04/14 12:08:06;;;;;;;;;17.00;15.00;23.20;39.10;;;;;;111017;1241;54491;-62
2023/04/14 12:10:36;;;;;;;;;21.25;16.25;23.20;39.10;;;;;;111296;1244;49144;-62
2023/04/14 12:13:08;;;;;;;;;17.00;15.25;23.20;39.30;;;;;;111187;1239;50022;-61
2023/04/14 12:15:36;;;;;;;;;21.00;19.50;23.10;39.00;;;;;;111257;1242;44763;-60
2023/04/14 12:18:08;;;;;;;;;25.00;16.00;23.10;39.30;;;;;;111175;1244;54620;-61
2023/04/14 12:20:50;;;;;;;;;24.25;16.50;23.10;39.00;;;;;;111288;1245;54693;-61
2023/04/14 12:23:17;;;;;;;;;22.75;18.00;23.10;39.00;;;;;;110993;1241;50314;-62
2023/04/14 12:25:44;;;;;;;;;20.00;17.00;23.10;39.10;;;;;;111205;1244;50065;-61
2023/04/14 12:28:19;;;;;;;;;20.50;16.75;23.10;39.30;;;;;;111176;1244;44732;-60